createdAt,value
2022-09-22T00:02:11.278Z,70.19
2022-09-22T00:06:19.719Z,69.98
2022-09-22T00:10:25.259Z,69.69
2022-09-22T00:14:29.128Z,69.85
2022-09-22T00:18:32.626Z,70.01
2022-09-22T00:22:35.747Z,70.45
2022-09-22T00:26:41.137Z,70.75
2022-09-22T00:30:44.681Z,70.81
2022-09-22T00:34:48.255Z,71.33
2022-09-22T00:38:51.763Z,71.56
2022-09-22T00:43:13.207Z,71.24
2022-09-22T00:47:26.245Z,71.37
2022-09-22T00:51:32.828Z,71.63
2022-09-22T00:55:42.056Z,71.47
2022-09-22T00:59:49.677Z,71.16
2022-09-22T01:03:52.931Z,71.59
2022-09-22T01:07:57.288Z,71.18
2022-09-22T01:12:01.622Z,71.63
2022-09-22T01:16:36.414Z,70.72
2022-09-22T01:21:06.850Z,71.05
2022-09-22T01:25:32.947Z,71.17
2022-09-22T01:30:02.050Z,71.18
2022-09-22T01:34:13.094Z,71.05
2022-09-22T01:38:23.201Z,70.64
2022-09-22T01:42:35.831Z,70.56
2022-09-22T01:46:43.299Z,70.48
2022-09-22T01:50:53.951Z,70.42
2022-09-22T01:55:01.126Z,70.91
2022-09-22T01:59:08.201Z,70.86
2022-09-22T02:03:15.614Z,70.93
2022-09-22T02:07:27.596Z,70.67
2022-09-22T02:11:30.580Z,71.03
2022-09-22T02:15:51.453Z,70.89
2022-09-22T02:19:54.541Z,70.98
2022-09-22T02:24:01.625Z,71.55
2022-09-22T02:28:05.968Z,70.95
2022-09-22T02:32:11.802Z,71.32
2022-09-22T02:36:30.365Z,71.50
2022-09-22T02:40:44.310Z,71.37
2022-09-22T02:44:51.057Z,71.59
2022-09-22T02:48:57.529Z,71.62
2022-09-22T02:53:05.901Z,71.77
2022-09-22T02:57:10.888Z,71.79
2022-09-22T03:01:14.563Z,71.53
2022-09-22T03:05:18.016Z,71.22
2022-09-22T03:09:21.565Z,71.59
2022-09-22T03:13:26.128Z,71.47
2022-09-22T03:17:29.607Z,72.09
2022-09-22T03:21:32.619Z,72.59
2022-09-22T03:25:36.371Z,72.70
2022-09-22T03:29:40.758Z,72.68
2022-09-22T03:33:48.145Z,72.50
2022-09-22T03:37:53.910Z,72.84
2022-09-22T03:41:57.010Z,72.54
2022-09-22T03:46:03.144Z,72.42
2022-09-22T03:50:07.424Z,73.01
2022-09-22T03:54:10.508Z,72.89
2022-09-22T03:58:13.999Z,73.20
2022-09-22T04:02:18.530Z,72.99
2022-09-22T04:06:22.161Z,73.13
2022-09-22T04:10:26.573Z,73.28
2022-09-22T04:14:30.562Z,73.77
2022-09-22T04:18:35.167Z,73.20
2022-09-22T04:22:38.698Z,72.78
2022-09-22T04:26:56.429Z,73.27
2022-09-22T04:31:05.597Z,72.77
2022-09-22T04:35:10.764Z,72.92
2022-09-22T04:39:14.242Z,73.30
2022-09-22T04:43:17.472Z,72.60
2022-09-22T04:47:20.879Z,72.95
2022-09-22T04:51:25.226Z,72.22
2022-09-22T04:55:28.902Z,72.37
2022-09-22T04:59:31.842Z,72.49
2022-09-22T05:03:38.715Z,72.75
2022-09-22T05:07:44.998Z,72.56
2022-09-22T05:11:49.097Z,73.08
2022-09-22T05:15:52.649Z,73.48
2022-09-22T05:19:56.064Z,73.80
2022-09-22T05:24:01.439Z,73.55
2022-09-22T05:28:04.530Z,73.51
2022-09-22T05:32:08.312Z,73.33
2022-09-22T05:36:11.377Z,74.00
2022-09-22T05:40:17.199Z,74.26
2022-09-22T05:44:22.031Z,74.53
2022-09-22T05:48:30.860Z,75.35
2022-09-22T05:52:34.425Z,75.30
2022-09-22T05:56:39.416Z,75.36
2022-09-22T06:00:42.901Z,75.02
2022-09-22T06:04:48.989Z,75.07
2022-09-22T06:08:53.021Z,74.93
2022-09-22T06:13:01.520Z,74.80
2022-09-22T06:17:05.342Z,74.94
2022-09-22T06:21:08.847Z,74.74
2022-09-22T06:25:11.969Z,74.92
2022-09-22T06:29:16.763Z,74.55
2022-09-22T06:33:20.341Z,73.76
2022-09-22T06:37:24.315Z,72.72
2022-09-22T06:41:27.630Z,72.38
2022-09-22T06:45:32.710Z,71.62
2022-09-22T06:49:35.727Z,71.00
2022-09-22T06:53:39.117Z,70.84
2022-09-22T06:57:42.137Z,69.94
2022-09-22T07:01:47.097Z,70.15
2022-09-22T07:05:55.195Z,69.89
2022-09-22T07:09:58.600Z,67.96
2022-09-22T07:14:03.200Z,66.93
2022-09-22T07:18:08.329Z,66.14
2022-09-22T07:22:12.969Z,66.47
2022-09-22T07:26:18.957Z,64.89
2022-09-22T07:30:22.601Z,64.46
2022-09-22T07:34:27.913Z,64.42
2022-09-22T07:38:36.434Z,63.93
2022-09-22T07:42:40.137Z,63.75
2022-09-22T07:46:43.480Z,62.43
2022-09-22T07:50:55.820Z,63.21
2022-09-22T07:54:58.904Z,61.66
2022-09-22T07:59:05.613Z,60.74
2022-09-22T08:03:09.961Z,60.06
2022-09-22T08:07:15.885Z,58.18
2022-09-22T08:11:20.312Z,59.23
2022-09-22T08:15:27.176Z,58.66
2022-09-22T08:19:30.649Z,57.40
2022-09-22T08:23:36.162Z,56.72
2022-09-22T08:27:39.504Z,57.42
2022-09-22T08:31:46.285Z,58.23
2022-09-22T08:35:54.324Z,56.91
2022-09-22T08:39:59.514Z,53.11
2022-09-22T08:44:15.877Z,53.95
2022-09-22T08:48:42.118Z,52.38
2022-09-22T08:52:49.595Z,52.40
2022-09-22T08:57:19.951Z,53.37
2022-09-22T09:01:32.768Z,53.68
2022-09-22T09:05:52.122Z,59.19
2022-09-22T09:10:07.097Z,51.15
2022-09-22T09:14:28.534Z,53.20
2022-09-22T09:18:35.510Z,50.72
2022-09-22T09:22:45.027Z,51.23
2022-09-22T09:26:52.977Z,49.98
2022-09-22T09:31:08.453Z,50.12
2022-09-22T09:35:15.653Z,50.10
2022-09-22T09:39:25.729Z,48.01
2022-09-22T09:43:30.363Z,46.63
2022-09-22T09:47:59.139Z,51.75
2022-09-22T09:52:05.737Z,46.24
2022-09-22T09:56:21.503Z,48.91
2022-09-22T10:00:34.690Z,45.87
2022-09-22T10:04:39.777Z,46.06
2022-09-22T10:08:45.594Z,45.22
2022-09-22T10:12:49.025Z,43.38
2022-09-22T10:16:53.388Z,43.06
2022-09-22T10:21:07.270Z,46.08
2022-09-22T10:25:22.219Z,46.22
2022-09-22T10:29:28.063Z,44.01
2022-09-22T10:33:31.994Z,44.59
2022-09-22T10:37:37.091Z,44.48
2022-09-22T10:41:41.907Z,44.66
2022-09-22T10:45:54.742Z,43.43
2022-09-22T10:50:21.865Z,45.59
2022-09-22T10:54:44.057Z,46.57
2022-09-22T10:59:07.166Z,43.76
2022-09-22T11:03:44.783Z,45.04
2022-09-22T11:08:17.153Z,42.41
2022-09-22T11:12:33.423Z,42.08
2022-09-22T11:17:07.694Z,43.55
2022-09-22T11:21:23.800Z,43.20
2022-09-22T11:25:43.587Z,42.27
2022-09-22T11:30:13.160Z,36.43
2022-09-22T11:34:48.049Z,39.29
2022-09-22T11:39:07.708Z,39.69
2022-09-22T11:43:31.778Z,38.81
2022-09-22T11:47:48.472Z,41.04
2022-09-22T11:52:06.496Z,39.90
2022-09-22T11:56:24.547Z,39.81
2022-09-22T12:00:35.649Z,38.72
2022-09-22T12:04:43.762Z,38.79
2022-09-22T12:12:58.874Z,37.40
2022-09-22T12:17:07.644Z,39.71
2022-09-22T12:21:29.849Z,40.96
2022-09-22T12:25:49.039Z,44.03
2022-09-22T12:29:58.610Z,40.92
2022-09-22T12:34:03.167Z,37.81
2022-09-22T12:38:08.402Z,37.08
2022-09-22T12:42:21.759Z,35.82
2022-09-22T12:46:30.551Z,37.68
2022-09-22T12:50:38.611Z,35.83
2022-09-22T12:54:43.704Z,36.90
2022-09-22T12:58:47.180Z,36.05
2022-09-22T13:02:51.346Z,36.13
2022-09-22T13:07:03.448Z,38.75
2022-09-22T13:11:10.118Z,36.19
2022-09-22T13:15:21.439Z,38.13
2022-09-22T13:19:24.512Z,36.25
2022-09-22T13:23:28.625Z,37.63
2022-09-22T13:27:33.740Z,36.94
2022-09-22T13:31:38.706Z,37.37
2022-09-22T13:35:43.729Z,36.95
2022-09-22T13:39:50.340Z,36.66
2022-09-22T13:43:58.188Z,37.34
2022-09-22T13:48:08.708Z,36.03
2022-09-22T13:52:18.031Z,37.01
2022-09-22T13:56:24.037Z,37.19
2022-09-22T14:00:41.349Z,37.08
2022-09-22T14:04:55.471Z,35.58
2022-09-22T14:09:00.310Z,36.62
2022-09-22T14:13:03.324Z,37.95
2022-09-22T14:17:14.498Z,38.71
2022-09-22T14:21:18.925Z,37.46
2022-09-22T14:25:23.626Z,36.33
2022-09-22T14:29:29.362Z,37.27
2022-09-22T14:33:35.696Z,37.71
2022-09-22T14:37:43.509Z,37.99
2022-09-22T14:41:53.277Z,38.40
2022-09-22T14:45:59.256Z,36.38
2022-09-22T14:50:20.541Z,38.43
2022-09-22T14:54:23.927Z,36.60
2022-09-22T14:58:29.779Z,36.54
2022-09-22T15:02:37.658Z,37.04
2022-09-22T15:06:44.399Z,37.13
2022-09-22T15:10:58.031Z,39.58
2022-09-22T15:15:02.103Z,37.84
2022-09-22T15:19:05.448Z,38.54
2022-09-22T15:23:16.486Z,39.54
2022-09-22T15:27:21.232Z,39.47
2022-09-22T15:31:27.376Z,38.93
2022-09-22T15:35:37.514Z,39.64
2022-09-22T15:39:42.726Z,39.37
2022-09-22T15:43:46.194Z,38.95
2022-09-22T15:47:53.867Z,39.64
2022-09-22T15:51:56.925Z,40.33
2022-09-22T15:56:05.750Z,40.75
2022-09-22T16:00:15.926Z,41.10
2022-09-22T16:04:20.723Z,40.43
2022-09-22T16:08:31.446Z,41.74
2022-09-22T16:12:36.032Z,41.98
2022-09-22T16:16:40.299Z,43.01
2022-09-22T16:20:43.645Z,44.59
2022-09-22T16:24:47.122Z,44.80
2022-09-22T16:28:52.183Z,45.08
2022-09-22T16:32:55.613Z,46.01
2022-09-22T16:36:59.137Z,46.86
2022-09-22T16:41:03.440Z,47.38
2022-09-22T16:45:08.768Z,48.09
2022-09-22T16:49:14.359Z,49.23
2022-09-22T16:53:18.022Z,49.77
2022-09-22T16:57:21.690Z,50.42
2022-09-22T17:01:26.993Z,51.09
2022-09-22T17:05:30.572Z,51.91
2022-09-22T17:09:34.319Z,52.69
2022-09-22T17:13:37.311Z,53.27
2022-09-22T17:17:43.212Z,53.87
2022-09-22T17:21:48.793Z,54.53
2022-09-22T17:25:51.811Z,55.20
2022-09-22T17:29:55.194Z,56.36
2022-09-22T17:34:03.160Z,56.36
2022-09-22T17:38:06.369Z,56.94
2022-09-22T17:42:10.704Z,58.08
2022-09-22T17:46:15.321Z,58.41
2022-09-22T17:50:37.329Z,58.49
2022-09-22T17:54:59.930Z,59.32
2022-09-22T17:59:03.459Z,59.59
2022-09-22T18:03:06.938Z,59.62
2022-09-22T18:07:15.944Z,59.71
2022-09-22T18:11:19.594Z,60.29
2022-09-22T18:15:23.347Z,60.44
2022-09-22T18:19:29.330Z,60.57
2022-09-22T18:23:34.133Z,61.08
2022-09-22T18:27:37.934Z,60.61
2022-09-22T18:31:41.217Z,61.23
2022-09-22T18:35:46.771Z,61.30
2022-09-22T18:39:52.360Z,61.54
2022-09-22T18:43:55.974Z,61.78
2022-09-22T18:47:59.977Z,61.74
2022-09-22T18:52:03.974Z,61.69
2022-09-22T18:56:12.872Z,61.28
2022-09-22T19:00:17.591Z,61.70
2022-09-22T19:04:22.246Z,62.07
2022-09-22T19:08:28.164Z,62.24
2022-09-22T19:12:36.006Z,62.13
2022-09-22T19:16:42.764Z,62.55
2022-09-22T19:20:46.952Z,62.21
2022-09-22T19:24:51.031Z,62.32
2022-09-22T19:28:55.981Z,62.38
2022-09-22T19:32:59.481Z,63.27
2022-09-22T19:37:02.562Z,63.51
2022-09-22T19:41:06.420Z,63.76
2022-09-22T19:45:11.462Z,63.67
2022-09-22T19:49:16.063Z,63.99
2022-09-22T19:53:19.818Z,64.98
2022-09-22T19:57:22.893Z,65.50
2022-09-22T20:01:32.793Z,64.95
2022-09-22T20:05:38.288Z,66.21
2022-09-22T20:09:41.301Z,66.25
2022-09-22T20:14:02.096Z,66.49
2022-09-22T20:18:07.063Z,66.59
2022-09-22T20:22:21.393Z,65.98
2022-09-22T20:26:25.764Z,66.83
2022-09-22T20:30:29.230Z,67.11
2022-09-22T20:34:33.726Z,67.32
2022-09-22T20:38:37.177Z,67.68
2022-09-22T20:42:40.270Z,67.78
2022-09-22T20:46:44.294Z,67.89
2022-09-22T20:50:57.005Z,66.85
2022-09-22T20:54:59.960Z,67.67
2022-09-22T20:59:03.938Z,68.08
2022-09-22T21:03:07.728Z,68.06
2022-09-22T21:07:12.610Z,68.15
2022-09-22T21:11:17.419Z,68.41
2022-09-22T21:15:22.027Z,68.68
2022-09-22T21:19:25.355Z,68.64
2022-09-22T21:23:30.127Z,68.24
2022-09-22T21:27:33.171Z,68.61
2022-09-22T21:31:37.852Z,68.14
2022-09-22T21:39:52.279Z,68.76
2022-09-22T21:43:56.830Z,68.84
2022-09-22T21:48:00.578Z,68.61
2022-09-22T21:52:03.637Z,68.82
2022-09-22T21:56:11.078Z,68.96
2022-09-22T22:00:15.198Z,68.61
2022-09-22T22:04:18.680Z,68.07
2022-09-22T22:08:22.186Z,68.20
2022-09-22T22:12:27.635Z,68.21
2022-09-22T22:16:32.842Z,67.92
2022-09-22T22:20:36.678Z,68.21
2022-09-22T22:24:43.062Z,68.39
2022-09-22T22:28:48.626Z,69.27
2022-09-22T22:32:52.078Z,69.08
2022-09-22T22:36:55.883Z,68.68
2022-09-22T22:41:03.945Z,69.29
2022-09-22T22:45:09.251Z,69.79
2022-09-22T22:49:12.753Z,70.04
2022-09-22T22:53:16.498Z,70.32
2022-09-22T22:57:20.020Z,70.49
2022-09-22T23:01:26.076Z,70.23
2022-09-22T23:05:30.242Z,70.40
2022-09-22T23:09:33.786Z,70.46
2022-09-22T23:13:36.784Z,70.52
2022-09-22T23:17:41.624Z,70.76
2022-09-22T23:21:45.108Z,70.92
2022-09-22T23:25:50.293Z,70.92
2022-09-22T23:29:54.195Z,71.39
2022-09-22T23:33:59.194Z,71.42
2022-09-22T23:38:02.365Z,71.34
2022-09-22T23:42:06.129Z,71.32
2022-09-22T23:46:09.620Z,71.43
2022-09-22T23:50:14.094Z,71.71
2022-09-22T23:54:17.488Z,71.40
2022-09-22T23:58:20.995Z,71.38
